Victoria, Nebraska
Current Conditions -  °F | °C
As of 9:53 AM on Sunday 25 Jan 2015 (Local Time) from KBBW Reporting Station
Broken Clouds Broken Clouds  
Wind Chill: 27°   Ceiling: 2100
Heat Index: 39°   Visibility: 10mi
Dew Point: 29°   Wind: 30mph
Humidity: 67%   Direction: 340°NNW
Pressure: 30.01"   Gusts: 39mph
Location:  41.6612°N, 99.7844°W
Report Text: KBBW 251553Z AUTO 34026G34KT 10SM BKN021 04/M02 A3001 RMK AO2 PK WND 34034/1549 SLP173 T00391017
Loading
Personal Weather Stations






























Interactive Weather Map New forecast layout! Learn more

10-Day Weather Forecast

Advertisements
Track Severe Weather on mobile